SAS1677 EKCH-EDDB
Flight info
| Callsign | SAS1677 |
|---|---|
| Flight time | 0h 41m |
| Altitude | 37000 |
| Route | SALLO M44 KOGIM M725 RODEP T280 KETAP KETAP1R |
| Aircraft | A20N/M-SDE2E3FGHIRWXY/LB1 |
Departure
| Time | 2026-05-07 18:20 |
|---|---|
| Airport | Copenhagen Kastrup Airport (EKCH) |
Arrival
| Time | 2026-05-07 19:01 |
|---|---|
| Airport | Berlin Brandenburg Airport (EDDB) |
| Time | Latitude | Longitude | Altitude | Speed | Heading |
|---|---|---|---|---|---|
| 2026-05-07 18:01 | 55.62553 | 12.64900 | 18 ft | 0 kts | 91° |
| 2026-05-07 18:11 | 55.62554 | 12.64873 | 18 ft | 2 kts | 93° |
| 2026-05-07 18:11 | 55.62554 | 12.64854 | 19 ft | 2 kts | 94° |
| 2026-05-07 18:11 | 55.62556 | 12.64815 | 20 ft | 2 kts | 98° |
| 2026-05-07 18:11 | 55.62559 | 12.64787 | 21 ft | 2 kts | 105° |
| 2026-05-07 18:12 | 55.62566 | 12.64760 | 22 ft | 2 kts | 146° |
| 2026-05-07 18:12 | 55.62581 | 12.64754 | 22 ft | 2 kts | 179° |
| 2026-05-07 18:12 | 55.62598 | 12.64754 | 20 ft | 2 kts | 182° |
| 2026-05-07 18:12 | 55.62610 | 12.64755 | 20 ft | 1 kts | 181° |
| 2026-05-07 18:13 | 55.62611 | 12.64755 | 20 ft | 0 kts | 181° |
| 2026-05-07 18:14 | 55.62609 | 12.64755 | 20 ft | 2 kts | 181° |
| 2026-05-07 18:14 | 55.62584 | 12.64753 | 22 ft | 6 kts | 181° |
| 2026-05-07 18:15 | 55.62524 | 12.64752 | 19 ft | 11 kts | 180° |
| 2026-05-07 18:15 | 55.62433 | 12.64775 | 20 ft | 15 kts | 169° |
| 2026-05-07 18:15 | 55.62336 | 12.64748 | 26 ft | 12 kts | 229° |
| 2026-05-07 18:15 | 55.62296 | 12.64593 | 20 ft | 7 kts | 246° |
| 2026-05-07 18:16 | 55.62295 | 12.64590 | 20 ft | 0 kts | 246° |
| 2026-05-07 18:17 | 55.62287 | 12.64561 | 19 ft | 6 kts | 245° |
| 2026-05-07 18:17 | 55.62260 | 12.64455 | 19 ft | 13 kts | 242° |
| 2026-05-07 18:17 | 55.62230 | 12.64372 | 17 ft | 7 kts | 256° |
| 2026-05-07 18:17 | 55.62158 | 12.64308 | 16 ft | 13 kts | 197° |
| 2026-05-07 18:18 | 55.62103 | 12.64267 | 19 ft | 13 kts | 204° |
| 2026-05-07 18:18 | 55.62017 | 12.64196 | 20 ft | 14 kts | 206° |
| 2026-05-07 18:18 | 55.61909 | 12.64106 | 25 ft | 12 kts | 205° |
| 2026-05-07 18:18 | 55.61855 | 12.64071 | 26 ft | 12 kts | 191° |
| 2026-05-07 18:19 | 55.61762 | 12.64077 | 26 ft | 15 kts | 177° |
| 2026-05-07 18:19 | 55.61651 | 12.64080 | 28 ft | 17 kts | 191° |
| 2026-05-07 18:19 | 55.61511 | 12.63890 | 26 ft | 51 kts | 220° |
| 2026-05-07 18:19 | 55.61069 | 12.63217 | 26 ft | 113 kts | 220° |
| 2026-05-07 18:20 | 55.60356 | 12.62118 | 137 ft | 147 kts | 220° |
| 2026-05-07 18:20 | 55.59625 | 12.60938 | 799 ft | 141 kts | 223° |
| 2026-05-07 18:20 | 55.58862 | 12.59724 | 1236 ft | 154 kts | 221° |
| 2026-05-07 18:20 | 55.58009 | 12.58445 | 1667 ft | 170 kts | 221° |
| 2026-05-07 18:21 | 55.57058 | 12.57025 | 2021 ft | 189 kts | 221° |
| 2026-05-07 18:21 | 55.55928 | 12.55629 | 2389 ft | 211 kts | 201° |
| 2026-05-07 18:21 | 55.54416 | 12.55441 | 2827 ft | 232 kts | 165° |
| 2026-05-07 18:21 | 55.52913 | 12.56720 | 3364 ft | 250 kts | 143° |
| 2026-05-07 18:22 | 55.51503 | 12.58713 | 4020 ft | 265 kts | 137° |
| 2026-05-07 18:22 | 55.50579 | 12.60145 | 4677 ft | 268 kts | 137° |
| 2026-05-07 18:22 | 55.48689 | 12.62995 | 6039 ft | 270 kts | 139° |
| 2026-05-07 18:22 | 55.47222 | 12.65084 | 7061 ft | 272 kts | 140° |
| 2026-05-07 18:23 | 55.45717 | 12.67152 | 7995 ft | 276 kts | 141° |
| 2026-05-07 18:23 | 55.44185 | 12.69218 | 8971 ft | 279 kts | 141° |
| 2026-05-07 18:23 | 55.42629 | 12.71302 | 9926 ft | 283 kts | 141° |
| 2026-05-07 18:23 | 55.41039 | 12.73429 | 10622 ft | 296 kts | 141° |
| 2026-05-07 18:24 | 55.39337 | 12.75712 | 10935 ft | 320 kts | 141° |
| 2026-05-07 18:24 | 55.37508 | 12.78162 | 11344 ft | 337 kts | 141° |
| 2026-05-07 18:24 | 55.35626 | 12.80678 | 12124 ft | 342 kts | 142° |
| 2026-05-07 18:24 | 55.33712 | 12.83233 | 12864 ft | 350 kts | 142° |
| 2026-05-07 18:25 | 55.31823 | 12.85750 | 13624 ft | 354 kts | 142° |
| 2026-05-07 18:25 | 55.29848 | 12.88382 | 14359 ft | 359 kts | 142° |
| 2026-05-07 18:25 | 55.27881 | 12.91001 | 15151 ft | 361 kts | 142° |
| 2026-05-07 18:25 | 55.25868 | 12.93679 | 15842 ft | 365 kts | 143° |
| 2026-05-07 18:26 | 55.23829 | 12.96387 | 16487 ft | 372 kts | 143° |
| 2026-05-07 18:26 | 55.21759 | 12.99133 | 17175 ft | 376 kts | 143° |
| 2026-05-07 18:26 | 55.19666 | 13.01904 | 17909 ft | 378 kts | 143° |
| 2026-05-07 18:26 | 55.17560 | 13.04688 | 18579 ft | 382 kts | 143° |
| 2026-05-07 18:27 | 55.15427 | 13.07506 | 19148 ft | 386 kts | 143° |
| 2026-05-07 18:27 | 55.13273 | 13.10345 | 19761 ft | 390 kts | 143° |
| 2026-05-07 18:27 | 55.11100 | 13.13206 | 20352 ft | 393 kts | 143° |
| 2026-05-07 18:27 | 55.08907 | 13.16087 | 20938 ft | 397 kts | 143° |
| 2026-05-07 18:28 | 55.06696 | 13.18989 | 21564 ft | 399 kts | 143° |
| 2026-05-07 18:28 | 55.04472 | 13.21905 | 22165 ft | 402 kts | 143° |
| 2026-05-07 18:28 | 55.02226 | 13.24848 | 22737 ft | 405 kts | 143° |
| 2026-05-07 18:28 | 54.99963 | 13.27809 | 23308 ft | 409 kts | 144° |
| 2026-05-07 18:29 | 54.97680 | 13.30789 | 23837 ft | 412 kts | 144° |
| 2026-05-07 18:29 | 54.95376 | 13.33793 | 24330 ft | 415 kts | 144° |
| 2026-05-07 18:29 | 54.92972 | 13.36573 | 24814 ft | 416 kts | 152° |
| 2026-05-07 18:29 | 54.90323 | 13.38604 | 25268 ft | 418 kts | 162° |
| 2026-05-07 18:30 | 54.87534 | 13.39789 | 25713 ft | 420 kts | 172° |
| 2026-05-07 18:30 | 54.84633 | 13.40543 | 26149 ft | 422 kts | 172° |
| 2026-05-07 18:30 | 54.81717 | 13.41309 | 26593 ft | 425 kts | 172° |
| 2026-05-07 18:30 | 54.78785 | 13.42088 | 27020 ft | 428 kts | 172° |
| 2026-05-07 18:31 | 54.75836 | 13.42877 | 27470 ft | 429 kts | 172° |
| 2026-05-07 18:31 | 54.72876 | 13.43670 | 27884 ft | 432 kts | 172° |
| 2026-05-07 18:31 | 54.69894 | 13.44468 | 28271 ft | 435 kts | 172° |
| 2026-05-07 18:31 | 54.66878 | 13.44952 | 28644 ft | 436 kts | 182° |
| 2026-05-07 18:32 | 54.63851 | 13.44480 | 29005 ft | 438 kts | 187° |
| 2026-05-07 18:32 | 54.60811 | 13.43851 | 29349 ft | 441 kts | 187° |
| 2026-05-07 18:32 | 54.57756 | 13.43209 | 29708 ft | 443 kts | 187° |
| 2026-05-07 18:32 | 54.54686 | 13.42568 | 30046 ft | 446 kts | 187° |
| 2026-05-07 18:33 | 54.51594 | 13.41930 | 30361 ft | 448 kts | 187° |
| 2026-05-07 18:33 | 54.48498 | 13.41299 | 30754 ft | 448 kts | 187° |
| 2026-05-07 18:33 | 54.45391 | 13.40668 | 31012 ft | 451 kts | 187° |
| 2026-05-07 18:33 | 54.42310 | 13.40045 | 31301 ft | 453 kts | 187° |
| 2026-05-07 18:34 | 54.39167 | 13.39411 | 31652 ft | 454 kts | 187° |
| 2026-05-07 18:34 | 54.36031 | 13.38779 | 32023 ft | 454 kts | 187° |
| 2026-05-07 18:34 | 54.32894 | 13.38148 | 32391 ft | 454 kts | 186° |
| 2026-05-07 18:34 | 54.29756 | 13.37517 | 32731 ft | 454 kts | 186° |
| 2026-05-07 18:35 | 54.26619 | 13.36888 | 33075 ft | 454 kts | 186° |
| 2026-05-07 18:35 | 54.23484 | 13.36260 | 33473 ft | 453 kts | 186° |
| 2026-05-07 18:35 | 54.20353 | 13.35633 | 33798 ft | 453 kts | 186° |
| 2026-05-07 18:35 | 54.17224 | 13.35010 | 34152 ft | 452 kts | 186° |
| 2026-05-07 18:36 | 54.14118 | 13.34394 | 34602 ft | 447 kts | 187° |
| 2026-05-07 18:36 | 54.11032 | 13.33780 | 34908 ft | 446 kts | 187° |
| 2026-05-07 18:36 | 54.07994 | 13.33175 | 35084 ft | 445 kts | 187° |
| 2026-05-07 18:37 | 54.01837 | 13.31950 | 35125 ft | 446 kts | 187° |
| 2026-05-07 18:37 | 53.95716 | 13.30741 | 35125 ft | 440 kts | 187° |
| 2026-05-07 18:37 | 53.92679 | 13.30141 | 34945 ft | 439 kts | 187° |
| 2026-05-07 18:38 | 53.89649 | 13.29543 | 34493 ft | 437 kts | 187° |
| 2026-05-07 18:38 | 53.86619 | 13.28945 | 33793 ft | 439 kts | 187° |
| 2026-05-07 18:38 | 53.83586 | 13.28350 | 33036 ft | 439 kts | 187° |
| 2026-05-07 18:38 | 53.80551 | 13.27756 | 32301 ft | 438 kts | 187° |
| 2026-05-07 18:39 | 53.77527 | 13.27164 | 31517 ft | 438 kts | 187° |
| 2026-05-07 18:39 | 53.74494 | 13.26571 | 30684 ft | 440 kts | 186° |
| 2026-05-07 18:39 | 53.71435 | 13.25973 | 29885 ft | 441 kts | 186° |
| 2026-05-07 18:39 | 53.68408 | 13.25384 | 29271 ft | 436 kts | 187° |
| 2026-05-07 18:40 | 53.65411 | 13.24800 | 28662 ft | 432 kts | 187° |
| 2026-05-07 18:40 | 53.62430 | 13.24221 | 28046 ft | 430 kts | 187° |
| 2026-05-07 18:40 | 53.59462 | 13.23644 | 27458 ft | 428 kts | 187° |
| 2026-05-07 18:40 | 53.56511 | 13.23072 | 26884 ft | 425 kts | 187° |
| 2026-05-07 18:41 | 53.53622 | 13.22513 | 26279 ft | 422 kts | 187° |
| 2026-05-07 18:41 | 53.50720 | 13.21953 | 25636 ft | 419 kts | 187° |
| 2026-05-07 18:41 | 53.47810 | 13.21390 | 24904 ft | 421 kts | 187° |
| 2026-05-07 18:41 | 53.44922 | 13.20833 | 24352 ft | 417 kts | 187° |
| 2026-05-07 18:42 | 53.42060 | 13.20282 | 23853 ft | 412 kts | 187° |
| 2026-05-07 18:42 | 53.39225 | 13.19738 | 23248 ft | 409 kts | 187° |
| 2026-05-07 18:42 | 53.36404 | 13.19196 | 22616 ft | 407 kts | 187° |
| 2026-05-07 18:42 | 53.33603 | 13.18660 | 22000 ft | 405 kts | 187° |
| 2026-05-07 18:43 | 53.30813 | 13.18125 | 21389 ft | 402 kts | 187° |
| 2026-05-07 18:43 | 53.28049 | 13.17596 | 20801 ft | 398 kts | 187° |
| 2026-05-07 18:43 | 53.25308 | 13.17073 | 20220 ft | 395 kts | 187° |
| 2026-05-07 18:43 | 53.22634 | 13.16564 | 19630 ft | 385 kts | 187° |
| 2026-05-07 18:44 | 53.19998 | 13.16064 | 19045 ft | 382 kts | 187° |
| 2026-05-07 18:44 | 53.17350 | 13.15560 | 18473 ft | 383 kts | 187° |
| 2026-05-07 18:44 | 53.14716 | 13.15059 | 17846 ft | 381 kts | 187° |
| 2026-05-07 18:44 | 53.12086 | 13.14558 | 17202 ft | 380 kts | 187° |
| 2026-05-07 18:45 | 53.09501 | 13.14068 | 16576 ft | 378 kts | 187° |
| 2026-05-07 18:45 | 53.06910 | 13.13579 | 16173 ft | 369 kts | 187° |
| 2026-05-07 18:45 | 53.04391 | 13.13104 | 15501 ft | 361 kts | 187° |
| 2026-05-07 18:45 | 53.01904 | 13.12635 | 14738 ft | 358 kts | 187° |
| 2026-05-07 18:46 | 52.99443 | 13.12168 | 13971 ft | 354 kts | 187° |
| 2026-05-07 18:46 | 52.97003 | 13.11706 | 13164 ft | 350 kts | 187° |
| 2026-05-07 18:46 | 52.94598 | 13.11254 | 12380 ft | 346 kts | 186° |
| 2026-05-07 18:46 | 52.92224 | 13.10808 | 11623 ft | 342 kts | 187° |
| 2026-05-07 18:47 | 52.89874 | 13.10367 | 10896 ft | 338 kts | 186° |
| 2026-05-07 18:47 | 52.87560 | 13.09933 | 10346 ft | 330 kts | 187° |
| 2026-05-07 18:47 | 52.85262 | 13.09502 | 10159 ft | 330 kts | 187° |
| 2026-05-07 18:47 | 52.83059 | 13.09089 | 10101 ft | 307 kts | 187° |
| 2026-05-07 18:48 | 52.81014 | 13.08707 | 10109 ft | 288 kts | 187° |
| 2026-05-07 18:48 | 52.79008 | 13.08331 | 10097 ft | 291 kts | 187° |
| 2026-05-07 18:48 | 52.77004 | 13.07956 | 10099 ft | 289 kts | 187° |
| 2026-05-07 18:48 | 52.74999 | 13.07581 | 10099 ft | 290 kts | 187° |
| 2026-05-07 18:49 | 52.72992 | 13.07207 | 10099 ft | 291 kts | 187° |
| 2026-05-07 18:49 | 52.70988 | 13.06833 | 10100 ft | 290 kts | 187° |
| 2026-05-07 18:49 | 52.68981 | 13.06460 | 10097 ft | 291 kts | 187° |
| 2026-05-07 18:49 | 52.66999 | 13.06091 | 10097 ft | 290 kts | 187° |
| 2026-05-07 18:50 | 52.64992 | 13.05718 | 10086 ft | 290 kts | 187° |
| 2026-05-07 18:50 | 52.62998 | 13.05344 | 9897 ft | 288 kts | 187° |
| 2026-05-07 18:50 | 52.61007 | 13.04969 | 9505 ft | 287 kts | 187° |
| 2026-05-07 18:50 | 52.59025 | 13.04586 | 9113 ft | 286 kts | 187° |
| 2026-05-07 18:51 | 52.57055 | 13.04197 | 8696 ft | 284 kts | 187° |
| 2026-05-07 18:51 | 52.55087 | 13.03838 | 8250 ft | 285 kts | 182° |
| 2026-05-07 18:51 | 52.53113 | 13.03950 | 7846 ft | 283 kts | 175° |
| 2026-05-07 18:51 | 52.51160 | 13.04191 | 7503 ft | 280 kts | 175° |
| 2026-05-07 18:52 | 52.49253 | 13.04421 | 7321 ft | 268 kts | 175° |
| 2026-05-07 18:52 | 52.47454 | 13.04628 | 7172 ft | 250 kts | 175° |
| 2026-05-07 18:52 | 52.45739 | 13.04821 | 6850 ft | 245 kts | 175° |
| 2026-05-07 18:52 | 52.44042 | 13.05009 | 6483 ft | 244 kts | 175° |
| 2026-05-07 18:53 | 52.42373 | 13.05187 | 6083 ft | 243 kts | 175° |
| 2026-05-07 18:53 | 52.40686 | 13.05363 | 5701 ft | 242 kts | 174° |
| 2026-05-07 18:53 | 52.39028 | 13.05766 | 5322 ft | 240 kts | 165° |
| 2026-05-07 18:53 | 52.37407 | 13.06386 | 4956 ft | 238 kts | 165° |
| 2026-05-07 18:54 | 52.35796 | 13.07002 | 4588 ft | 237 kts | 165° |
| 2026-05-07 18:54 | 52.34217 | 13.07599 | 4425 ft | 227 kts | 165° |
| 2026-05-07 18:54 | 52.32714 | 13.08161 | 4299 ft | 217 kts | 165° |
| 2026-05-07 18:54 | 52.31279 | 13.08693 | 4068 ft | 207 kts | 165° |
| 2026-05-07 18:55 | 52.29880 | 13.09306 | 3525 ft | 208 kts | 155° |
| 2026-05-07 18:55 | 52.28804 | 13.10756 | 3126 ft | 197 kts | 117° |
| 2026-05-07 18:55 | 52.28453 | 13.12868 | 3026 ft | 189 kts | 95° |
| 2026-05-07 18:55 | 52.28297 | 13.14887 | 2995 ft | 169 kts | 95° |
| 2026-05-07 18:56 | 52.28150 | 13.16766 | 3010 ft | 170 kts | 94° |
| 2026-05-07 18:56 | 52.28148 | 13.18653 | 3007 ft | 164 kts | 81° |
| 2026-05-07 18:56 | 52.28394 | 13.20454 | 3006 ft | 165 kts | 72° |
| 2026-05-07 18:56 | 52.28763 | 13.22230 | 3006 ft | 165 kts | 69° |
| 2026-05-07 18:57 | 52.29165 | 13.23991 | 3006 ft | 165 kts | 68° |
| 2026-05-07 18:57 | 52.29576 | 13.25747 | 2940 ft | 166 kts | 68° |
| 2026-05-07 18:57 | 52.29986 | 13.27499 | 2729 ft | 164 kts | 68° |
| 2026-05-07 18:57 | 52.30395 | 13.29235 | 2504 ft | 163 kts | 68° |
| 2026-05-07 18:58 | 52.30802 | 13.30967 | 2278 ft | 163 kts | 67° |
| 2026-05-07 18:58 | 52.31209 | 13.32698 | 2054 ft | 164 kts | 68° |
| 2026-05-07 18:58 | 52.31614 | 13.34422 | 1828 ft | 162 kts | 67° |
| 2026-05-07 18:58 | 52.32039 | 13.36125 | 1572 ft | 162 kts | 66° |
| 2026-05-07 18:59 | 52.32475 | 13.37894 | 1423 ft | 177 kts | 69° |
| 2026-05-07 18:59 | 52.32909 | 13.39808 | 1127 ft | 174 kts | 69° |
| 2026-05-07 18:59 | 52.33302 | 13.41553 | 946 ft | 152 kts | 68° |
| 2026-05-07 18:59 | 52.33653 | 13.43068 | 754 ft | 135 kts | 68° |
| 2026-05-07 19:00 | 52.33992 | 13.44506 | 602 ft | 137 kts | 67° |
| 2026-05-07 19:00 | 52.34336 | 13.45965 | 397 ft | 139 kts | 68° |
| 2026-05-07 19:00 | 52.34680 | 13.47419 | 158 ft | 134 kts | 68° |
| 2026-05-07 19:00 | 52.34942 | 13.48482 | 154 ft | 71 kts | 68° |
| 2026-05-07 19:01 | 52.35116 | 13.49174 | 154 ft | 56 kts | 55° |
| 2026-05-07 19:01 | 52.35256 | 13.49389 | 154 ft | 5 kts | 36° |
| 2026-05-07 19:01 | 52.35286 | 13.49424 | 154 ft | 8 kts | 37° |
| 2026-05-07 19:01 | 52.35348 | 13.49529 | 154 ft | 17 kts | 33° |
| 2026-05-07 19:02 | 52.35452 | 13.49674 | 154 ft | 18 kts | 62° |
| 2026-05-07 19:02 | 52.35503 | 13.49880 | 156 ft | 19 kts | 70° |
| 2026-05-07 19:02 | 52.35542 | 13.50029 | 154 ft | 0 kts | 65° |
| 2026-05-07 19:02 | 52.35543 | 13.50033 | 154 ft | 2 kts | 65° |
| 2026-05-07 19:03 | 52.35553 | 13.50069 | 154 ft | 5 kts | 66° |
| 2026-05-07 19:03 | 52.35569 | 13.50145 | 154 ft | 10 kts | 72° |
| 2026-05-07 19:03 | 52.35602 | 13.50304 | 154 ft | 18 kts | 69° |
| 2026-05-07 19:03 | 52.35649 | 13.50502 | 154 ft | 20 kts | 69° |
| 2026-05-07 19:04 | 52.35702 | 13.50729 | 154 ft | 19 kts | 69° |
| 2026-05-07 19:04 | 52.35784 | 13.50815 | 154 ft | 16 kts | 346° |
| 2026-05-07 19:04 | 52.35831 | 13.50787 | 154 ft | 4 kts | 340° |
| 2026-05-07 19:04 | 52.35845 | 13.50779 | 154 ft | 0 kts | 340° |
| 2026-05-07 19:05 | 52.35859 | 13.50770 | 154 ft | 4 kts | 339° |
| 2026-05-07 19:06 | 52.35896 | 13.50746 | 154 ft | 7 kts | 338° |
| 2026-05-07 19:06 | 52.36029 | 13.50663 | 154 ft | 13 kts | 340° |
| 2026-05-07 19:06 | 52.36121 | 13.50604 | 154 ft | 15 kts | 338° |
| 2026-05-07 19:07 | 52.36199 | 13.50555 | 154 ft | 6 kts | 339° |
| 2026-05-07 19:07 | 52.36223 | 13.50572 | 154 ft | 4 kts | 69° |
| 2026-05-07 19:07 | 52.36237 | 13.50639 | 154 ft | 8 kts | 70° |
| 2026-05-07 19:07 | 52.36247 | 13.50682 | 154 ft | 2 kts | 69° |